KPWA

Wiley Post Airport

Oklahoma City, Oklahoma, USA
METAR KPWA 241253Z 09004KT 10SM CLR 23/18 A3007 RMK AO2 SLP168 T02280183
Observed Flight Rules
May-24 @ 12:53 UTC (53 minutes ago) Visual Flight Rules
Wind Visibility Clouds
90° at 4 knots 10 miles
  • Clear skies
Temperatures Readings
Current 23°C / 73°F
Dewpoint 18°C / 64°F
Humidity 74%
Altimeter 30.07" Hg
Pressure 1016.8 hPa
Elevation 397
METAR KPWA 241253Z 09004KT 10SM CLR 23/18 A3007 RMK AO2 SLP168 T02280183
Observed Flight Rules
May-24 @ 12:53 UTC
(53 minutes ago)
VFR
Wind Visibility
90° at 4 knots 10 miles
Clouds
  • Clear skies
Temperature Dewpoint
23°C / 73°F 18°C / 64°F
Humidity Altimeter Pressure
74% 30.07" Hg 1016.8 hPa